Terminal Aerodrome Forecast
Issued by NWS Jackson, KY

Home | Current Version | Previous Version | Text Only | Print | Product List | Glossary On
Versions: 1 2 3 4 5 6 7 8 9 10 11 12
000
FTUS43 KJKL 230539
TAFJKL
TAF
KJKL 230539Z 2306/2406 11006KT P6SM BKN200
     FM230700 11006KT P6SM -SHRA BKN120
     FM231200 11010KT P6SM -SHRA SCT050 OVC080
     FM231800 11010KT P6SM -SHRA OVC050=

USA.gov is the U.S. government's official web portal to all federal, state and local government web resources and services.